Kezdőlap
METAR-TAF:

METAR-TAF

Repülőterek :

Sanghaj-Putungi nemzetközi repülőtér

Sanghaj-Pudong, Kína

földrajzi szélesség: 31-07N, földrajzi hosszúság: 121-46E, magasság: 4 m

Jelenlegi meteorológiai megfigyelések

A jelentés 23 perccel ezelõtt készült, 04:00 UTC
Észak-északnyugati szél 14 kt
Hőmérséklet 9°C
Páratartalom 61%
Légköri nyomás 1028 hPa
Látótávolság: 4000 m
Szakadozott felhőzet 2000 lábon
Száraz légköri homály

METAR: ZSPD 200400Z 34007MPS 4000 HZ BKN020 09/02 Q1028 NOSIG

Idő: 12:23 (04:23 UTC)

Előrejelzés

A jelentés 7 órával és 13 perccel ezelõtt készült, 21:10 UTC
Az előrejelzés 20-én 00 óra UTC és 20-én 24 óra UTC között érvényes
Észak-északnyugati szél 8 kt
Látótávolság: 3500 m
Szakadozott felhőzet 1500 lábon
Párásság

TAF: ZSPD 192110Z 2000/2024 33004MPS 3500 BR BKN015 TX09/2006Z TN04/2021Z

Meteorológiai megfigyelések és előrejelzések több, mint 4000 repülőtéren (METAR és TAF jelentéseket).

A térképen piros és sárga pontok jelzik az elérhető meteorológiai állomásokat.

Mozgassa az egeret a pont fölött, hogy megjelenjen az állomás neve.

Azután kattintson az időjárási megfigyelések és előrejelzések megtekintéséhez.

A térkép megváltoztatása: kattintson a fekete keresztel jelölt zöld gombra ráközelítéshez, a vonallal jelölt zöld gombra távolításhoz, vagy a zöld nyilakra a szomszédos térképek eléréséhez.


METAR-TAF: